Weather Melbourne :: Current Conditions and Historical Data

 
Daily Summary for July 07, 2015 Units:  Both    English   Metric
« Previous Day
Next Day »
Daily Weekly Monthly Yearly Custom
  Current: High: Low: Average:
Temperature: 44.8 °F /  7.1 °C 45.2 °F /  7.3 °C 44.1 °F /  6.7 °C 44.5 °F /  6.9 °C
Dew Point: 42.9 °F /  6.1 °C 43.0 °F /  6.1 °C 41.9 °F /  5.5 °C 42.4 °F /  5.8 °C
Humidity: 93 % 93 % 92 % 92 %
Wind Speed: 0.0 mph /  0 km/h 2.3 mph /  3.7 km/h - 0.2 mph /  0.3 km/h
Wind Gust: 0.0 mph /  0 km/h 3.0 mph /  4.8 km/h - -
Wind:Calm - - ENE
Pressure: 30.12 in /  1019.9 hPa 30.12 in /  1019.9 hPa 30.07 in /  1018.2 hPa -
Precipitation: 0.11 in /  2.79 mm      
Melbourne, Australia Weather Graphs
 
 
Melbourne, current snapshot. Courtesy of citylink.com.au
Weather Melbourne

Melbourne Weather Radar




Weather in Melbourne, AU
Hourly Data for July 07, 2015
Time Temperature Dew Point Pressure Wind Wind Speed Wind Gust Humidity Rainfall Rate (Hourly) solar Conditions
00:00 45.2 °F /  7.3 °C 43.0 °F /  6.1 °C 30.08 in /  1018.5 hPa ENE 2.0 mph /  3.2 km/h 3.0 mph /  4.8 km/h 92 % 0.00 in /  0 mm 0.0 W/m2 BKN
00:04 45.1 °F /  7.3 °C 42.9 °F /  6.1 °C 30.08 in /  1018.5 hPa ENE 2.3 mph /  3.7 km/h 2.3 mph /  3.7 km/h 92 % 0.00 in /  0 mm 0.0 W/m2 BKN
00:09 45.1 °F /  7.3 °C 42.9 °F /  6.1 °C 30.07 in /  1018.2 hPa Calm     92 % 0.00 in /  0 mm 0.0 W/m2 BKN
00:14 45.0 °F /  7.2 °C 42.8 °F /  6 °C 30.08 in /  1018.5 hPa ENE 1.0 mph /  1.6 km/h 1.0 mph /  1.6 km/h 92 % 0.00 in /  0 mm 0.0 W/m2 BKN
00:20 45.0 °F /  7.2 °C 42.8 °F /  6 °C 30.08 in /  1018.5 hPa ENE 2.3 mph /  3.7 km/h 2.3 mph /  3.7 km/h 92 % 0.00 in /  0 mm 0.0 W/m2 BKN
00:25 44.9 °F /  7.2 °C 42.7 °F /  5.9 °C 30.08 in /  1018.5 hPa Calm     92 % 0.00 in /  0 mm 0.0 W/m2 BKN
00:30 44.8 °F /  7.1 °C 42.6 °F /  5.9 °C 30.08 in /  1018.5 hPa Calm     92 % 0.00 in /  0 mm 0.0 W/m2 BKN
00:35 44.7 °F /  7.1 °C 42.5 °F /  5.8 °C 30.08 in /  1018.5 hPa Calm   1.0 mph /  1.6 km/h 92 % 0.00 in /  0 mm 0.0 W/m2 BKN
00:40 44.6 °F /  7 °C 42.4 °F /  5.8 °C 30.08 in /  1018.5 hPa Calm   2.0 mph /  3.2 km/h 92 % 0.00 in /  0 mm 0.0 W/m2 BKN
00:45 44.6 °F /  7 °C 42.4 °F /  5.8 °C 30.08 in /  1018.5 hPa Calm   1.0 mph /  1.6 km/h 92 % 0.00 in /  0 mm 0.0 W/m2 BKN
00:50 44.5 °F /  6.9 °C 42.3 °F /  5.7 °C 30.08 in /  1018.5 hPa Calm   1.0 mph /  1.6 km/h 92 % 0.00 in /  0 mm 0.0 W/m2 BKN
00:55 44.5 °F /  6.9 °C 42.3 °F /  5.7 °C 30.08 in /  1018.5 hPa Calm   1.0 mph /  1.6 km/h 92 % 0.00 in /  0 mm 0.0 W/m2 BKN
01:00 44.5 °F /  6.9 °C 42.3 °F /  5.7 °C 30.08 in /  1018.5 hPa Calm   1.0 mph /  1.6 km/h 92 % 0.00 in /  0 mm 0.0 W/m2 BKN
01:05 44.4 °F /  6.9 °C 42.2 °F /  5.7 °C 30.08 in /  1018.5 hPa Calm   2.0 mph /  3.2 km/h 92 % 0.00 in /  0 mm 0.0 W/m2 BKN
01:09 44.4 °F /  6.9 °C 42.2 °F /  5.7 °C 30.08 in /  1018.5 hPa ENE 1.2 mph /  1.9 km/h   92 % 0.00 in /  0 mm 0.0 W/m2 BKN
01:14 44.4 °F /  6.9 °C 42.2 °F /  5.7 °C 30.08 in /  1018.5 hPa NE 1.2 mph /  1.9 km/h   92 % 0.00 in /  0 mm 0.0 W/m2 BKN
01:20 44.4 °F /  6.9 °C 42.2 °F /  5.7 °C 30.08 in /  1018.5 hPa NE 1.2 mph /  1.9 km/h   92 % 0.00 in /  0 mm 0.0 W/m2 BKN
01:25 44.3 °F /  6.8 °C 42.1 °F /  5.6 °C 30.08 in /  1018.5 hPa Calm   0.1 mph /  0.2 km/h 92 % 0.00 in /  0 mm 0.0 W/m2 BKN
01:30 44.3 °F /  6.8 °C 42.1 °F /  5.6 °C 30.08 in /  1018.5 hPa Calm   1.0 mph /  1.6 km/h 92 % 0.00 in /  0 mm 0.0 W/m2 BKN
01:35 44.3 °F /  6.8 °C 42.1 °F /  5.6 °C 30.08 in /  1018.5 hPa NE 1.2 mph /  1.9 km/h   92 % 0.00 in /  0 mm 0.0 W/m2 BKN
01:40 44.4 °F /  6.9 °C 42.2 °F /  5.7 °C 30.08 in /  1018.5 hPa Calm   1.0 mph /  1.6 km/h 92 % 0.00 in /  0 mm 0.0 W/m2 BKN
01:45 44.4 °F /  6.9 °C 42.2 °F /  5.7 °C 30.08 in /  1018.5 hPa Calm     92 % 0.00 in /  0 mm 0.0 W/m2 BKN
01:50 44.4 °F /  6.9 °C 42.2 °F /  5.7 °C 30.09 in /  1018.8 hPa Calm     92 % 0.00 in /  0 mm 0.0 W/m2 BKN
01:55 44.4 °F /  6.9 °C 42.2 °F /  5.7 °C 30.09 in /  1018.8 hPa Calm     92 % 0.00 in /  0 mm 0.0 W/m2 BKN
02:00 44.4 °F /  6.9 °C 42.2 °F /  5.7 °C 30.09 in /  1018.8 hPa Calm     92 % 0.00 in /  0 mm 0.0 W/m2 BKN
02:04 44.4 °F /  6.9 °C 42.2 °F /  5.7 °C 30.09 in /  1018.8 hPa Calm     92 % 0.00 in /  0 mm 0.0 W/m2 BKN
02:10 44.4 °F /  6.9 °C 42.2 °F /  5.7 °C 30.09 in /  1018.8 hPa Calm     92 % 0.00 in /  0 mm 0.0 W/m2 BKN
02:15 44.4 °F /  6.9 °C 42.2 °F /  5.7 °C 30.09 in /  1018.8 hPa Calm     92 % 0.00 in /  0 mm 0.0 W/m2 BKN
02:20 44.3 °F /  6.8 °C 42.1 °F /  5.6 °C 30.10 in /  1019.2 hPa NE 1.2 mph /  1.9 km/h   92 % 0.00 in /  0 mm 0.0 W/m2 BKN
02:25 44.3 °F /  6.8 °C 42.1 °F /  5.6 °C 30.10 in /  1019.2 hPa Calm     92 % 0.00 in /  0 mm 0.0 W/m2 BKN
02:30 44.3 °F /  6.8 °C 42.1 °F /  5.6 °C 30.10 in /  1019.2 hPa Calm     92 % 0.00 in /  0 mm 0.0 W/m2 BKN
02:35 44.2 °F /  6.8 °C 42.1 °F /  5.6 °C 30.10 in /  1019.2 hPa Calm     92 % 0.00 in /  0 mm 0.0 W/m2 BKN
02:40 44.2 °F /  6.8 °C 42.0 °F /  5.6 °C 30.10 in /  1019.2 hPa Calm     92 % 0.00 in /  0 mm 0.0 W/m2 BKN
02:45 44.2 °F /  6.8 °C 42.0 °F /  5.6 °C 30.10 in /  1019.2 hPa Calm     92 % 0.00 in /  0 mm 0.0 W/m2 BKN
02:49 44.2 °F /  6.8 °C 42.0 °F /  5.6 °C 30.10 in /  1019.2 hPa Calm     92 % 0.00 in /  0 mm 0.0 W/m2 BKN
02:54 44.2 °F /  6.8 °C 42.0 °F /  5.6 °C 30.10 in /  1019.2 hPa Calm     92 % 0.00 in /  0 mm 0.0 W/m2 BKN
02:59 44.2 °F /  6.8 °C 42.0 °F /  5.6 °C 30.10 in /  1019.2 hPa Calm     92 % 0.00 in /  0 mm 0.0 W/m2 BKN
03:05 44.2 °F /  6.8 °C 42.0 °F /  5.6 °C 30.10 in /  1019.2 hPa Calm     92 % 0.00 in /  0 mm 0.0 W/m2 BKN
03:10 44.1 °F /  6.7 °C 41.9 °F /  5.5 °C 30.10 in /  1019.2 hPa Calm     92 % 0.00 in /  0 mm 0.0 W/m2 BKN
03:15 44.2 °F /  6.8 °C 42.0 °F /  5.6 °C 30.10 in /  1019.2 hPa Calm     92 % 0.00 in /  0 mm 0.0 W/m2 BKN
03:20 44.2 °F /  6.8 °C 42.0 °F /  5.6 °C 30.10 in /  1019.2 hPa Calm     92 % 0.00 in /  0 mm 0.0 W/m2 BKN
03:30 44.2 °F /  6.8 °C 42.0 °F /  5.6 °C 30.10 in /  1019.2 hPa Calm     92 % 0.00 in /  0 mm 0.0 W/m2 BKN
03:35 44.2 °F /  6.8 °C 42.0 °F /  5.6 °C 30.10 in /  1019.2 hPa Calm     92 % 0.00 in /  0 mm 0.0 W/m2 BKN
03:40 44.2 °F /  6.8 °C 42.0 °F /  5.6 °C 30.10 in /  1019.2 hPa Calm     92 % 0.00 in /  0 mm 0.0 W/m2 BKN
03:45 44.2 °F /  6.8 °C 42.0 °F /  5.6 °C 30.10 in /  1019.2 hPa Calm     92 % 0.00 in /  0 mm 0.0 W/m2 BKN
03:49 44.3 °F /  6.8 °C 42.4 °F /  5.8 °C 30.10 in /  1019.2 hPa Calm     93 % 0.00 in /  0 mm 0.0 W/m2 BKN
03:50 44.3 °F /  6.8 °C 42.4 °F /  5.8 °C 30.11 in /  1019.5 hPa Calm     93 % 0.00 in /  0 mm 0.0 W/m2 BKN
03:54 44.3 °F /  6.8 °C 42.4 °F /  5.8 °C 30.10 in /  1019.2 hPa Calm     93 % 0.00 in /  0 mm 0.0 W/m2 BKN
03:59 44.3 °F /  6.8 °C 42.4 °F /  5.8 °C 30.10 in /  1019.2 hPa Calm     93 % 0.00 in /  0 mm 0.0 W/m2 BKN
04:00 44.3 °F /  6.8 °C 42.4 °F /  5.8 °C 30.10 in /  1019.2 hPa Calm     93 % 0.00 in /  0 mm 0.0 W/m2 BKN
04:05 44.3 °F /  6.8 °C 42.4 °F /  5.8 °C 30.10 in /  1019.2 hPa Calm     93 % 0.00 in /  0 mm 0.0 W/m2 BKN
04:10 44.3 °F /  6.8 °C 42.4 °F /  5.8 °C 30.11 in /  1019.5 hPa Calm     93 % 0.00 in /  0 mm 0.0 W/m2 BKN
04:15 44.4 °F /  6.9 °C 42.5 °F /  5.8 °C 30.11 in /  1019.5 hPa Calm     93 % 0.00 in /  0 mm 0.0 W/m2 BKN
04:20 44.5 °F /  6.9 °C 42.6 °F /  5.9 °C 30.11 in /  1019.5 hPa Calm     93 % 0.00 in /  0 mm 0.0 W/m2 BKN
04:25 44.5 °F /  6.9 °C 42.6 °F /  5.9 °C 30.11 in /  1019.5 hPa Calm     93 % 0.00 in /  0 mm 0.0 W/m2 BKN
04:30 44.5 °F /  6.9 °C 42.6 °F /  5.9 °C 30.11 in /  1019.5 hPa Calm     93 % 0.00 in /  0 mm 0.0 W/m2 BKN
04:35 44.5 °F /  6.9 °C 42.6 °F /  5.9 °C 30.11 in /  1019.5 hPa Calm     93 % 0.00 in /  0 mm 0.0 W/m2 BKN
04:40 44.6 °F /  7 °C 42.7 °F /  5.9 °C 30.11 in /  1019.5 hPa Calm     93 % 0.02 in /  0.51 mm 0.0 W/m2 RA
04:45 44.6 °F /  7 °C 42.7 °F /  5.9 °C 30.11 in /  1019.5 hPa Calm     93 % 0.02 in /  0.51 mm 0.0 W/m2 RA
04:50 44.7 °F /  7.1 °C 42.8 °F /  6 °C 30.11 in /  1019.5 hPa Calm     93 % 0.02 in /  0.51 mm 0.0 W/m2 BKN
04:55 44.7 °F /  7.1 °C 42.8 °F /  6 °C 30.11 in /  1019.5 hPa NE 1.2 mph /  1.9 km/h 1.2 mph /  1.9 km/h 93 % 0.02 in /  0.51 mm 0.0 W/m2 BKN
05:00 44.7 °F /  7.1 °C 42.8 °F /  6 °C 30.11 in /  1019.5 hPa Calm     93 % 0.02 in /  0.51 mm 0.0 W/m2 BKN
05:05 44.7 °F /  7.1 °C 42.8 °F /  6 °C 30.11 in /  1019.5 hPa Calm     93 % 0.03 in /  0.76 mm 0.0 W/m2 RA
05:10 44.7 °F /  7.1 °C 42.8 °F /  6 °C 30.11 in /  1019.5 hPa NE 1.2 mph /  1.9 km/h 1.2 mph /  1.9 km/h 93 % 0.03 in /  0.76 mm 0.0 W/m2 BKN
05:15 44.8 °F /  7.1 °C 42.9 °F /  6.1 °C 30.12 in /  1019.9 hPa Calm     93 % 0.03 in /  0.76 mm 0.0 W/m2 BKN
05:20 44.8 °F /  7.1 °C 42.9 °F /  6.1 °C 30.12 in /  1019.9 hPa Calm     93 % 0.03 in /  0.76 mm 0.0 W/m2 BKN
05:25 44.8 °F /  7.1 °C 42.9 °F /  6.1 °C 30.12 in /  1019.9 hPa Calm     93 % 0.03 in /  0.76 mm 0.0 W/m2 BKN
05:30 44.8 °F /  7.1 °C 42.9 °F /  6.1 °C 30.12 in /  1019.9 hPa Calm     93 % 0.03 in /  0.76 mm 0.0 W/m2 BKN
05:35 44.8 °F /  7.1 °C 42.9 °F /  6.1 °C 30.12 in /  1019.9 hPa NE 1.0 mph /  1.6 km/h   93 % 0.02 in /  0.51 mm 0.0 W/m2 BKN
05:40 44.8 °F /  7.1 °C 42.9 °F /  6.1 °C 30.12 in /  1019.9 hPa NE 1.2 mph /  1.9 km/h 1.2 mph /  1.9 km/h 93 % 0.02 in /  0.51 mm 0.0 W/m2 BKN
05:45 44.8 °F /  7.1 °C 42.9 °F /  6.1 °C 30.12 in /  1019.9 hPa Calm     93 % 0.01 in /  0.25 mm 0.0 W/m2 BKN
05:50 44.8 °F /  7.1 °C 42.9 °F /  6.1 °C 30.12 in /  1019.9 hPa Calm     93 % 0.01 in /  0.25 mm 0.0 W/m2 BKN
05:55 44.8 °F /  7.1 °C 42.9 °F /  6.1 °C 30.12 in /  1019.9 hPa Calm     93 % 0.01 in /  0.25 mm 0.0 W/m2 BKN
Melbourne Forecast
About Melbourne | City of Melbourne official website